Time;durP1;ratioP1;P1;durP2;ratioP2;P2;SDS_P1;SDS_P2;PMS_P1;PMS_P2;Temp;Humidity;BMP_temperature;BMP_pressure;BME280_temperature;BME280_humidity;BME280_pressure;Samples;Min_cycle;Max_cycle;Signal;HPM_P1;HPM_P2
2022/05/07 00:01:26;;;;;;;3.75;3.05;;;;;;;20.38;58.00;101438.34;4991691;28;20055;-77
2022/05/07 00:03:54;;;;;;;4.40;3.40;;;;;;;20.36;57.97;101437.59;4991418;28;20418;-77
2022/05/07 00:06:21;;;;;;;5.07;3.72;;;;;;;20.37;58.21;101432.09;4993345;28;20505;-78
2022/05/07 00:08:49;;;;;;;5.28;3.40;;;;;;;20.38;58.18;101443.72;4993302;28;20058;-77
2022/05/07 00:11:20;;;;;;;3.53;3.20;;;;;;;20.36;57.97;101432.22;4994939;28;20058;-77
2022/05/07 00:13:48;;;;;;;5.05;3.78;;;;;;;20.36;57.88;101430.38;4996696;28;20054;-78
2022/05/07 00:19:19;;;;;;;;;;;;;;;20.38;58.08;101419.53;5016585;28;20054;-77
2022/05/07 00:21:47;;;;;;;4.25;3.45;;;;;;;20.36;58.09;101422.31;5013977;28;19925;-77
2022/05/07 00:24:14;;;;;;;4.38;3.40;;;;;;;20.36;57.99;101416.09;5014232;28;20060;-77
2022/05/07 00:26:41;;;;;;;4.43;3.15;;;;;;;20.35;58.10;101417.94;5014138;28;20398;-78
2022/05/07 00:29:10;;;;;;;5.00;3.50;;;;;;;20.35;58.04;101422.44;5013723;28;20408;-78
2022/05/07 00:31:37;;;;;;;3.78;3.10;;;;;;;20.35;58.00;101419.75;5014395;28;20046;-77
2022/05/07 00:34:05;;;;;;;4.50;3.45;;;;;;;20.36;58.17;101421.47;5013731;28;20058;-78
2022/05/07 00:36:33;;;;;;;3.72;3.28;;;;;;;20.35;57.96;101419.75;5013668;28;20054;-78
2022/05/07 00:39:00;;;;;;;3.78;2.97;;;;;;;20.36;58.06;101418.78;5014101;28;20066;-78
2022/05/07 00:41:29;;;;;;;4.32;3.15;;;;;;;20.35;58.08;101415.22;5014003;28;20064;-78
2022/05/07 00:43:56;;;;;;;5.03;3.63;;;;;;;20.35;58.02;101417.06;4997527;28;20457;-78
2022/05/07 00:46:25;;;;;;;4.03;3.45;;;;;;;20.35;58.08;101425.13;4997481;28;20050;-77
2022/05/07 00:48:54;;;;;;;3.42;2.97;;;;;;;20.34;58.01;101426.97;5013174;28;20050;-77
2022/05/07 00:51:34;;;;;;;4.32;3.40;;;;;;;20.34;58.26;101426.97;4997353;28;20180;-78
2022/05/07 00:54:08;;;;;;;6.00;3.55;;;;;;;20.34;58.15;101426.97;4995053;28;20061;-78
2022/05/07 00:56:38;;;;;;;3.90;3.28;;;;;;;20.35;58.11;101425.13;4994514;28;20046;-77
2022/05/07 00:59:06;;;;;;;4.95;3.08;;;;;;;20.34;58.04;101421.59;4995839;28;20050;-77
2022/05/07 01:01:34;;;;;;;4.43;3.63;;;;;;;20.35;58.22;101422.44;4993764;28;20058;-78
2022/05/07 01:04:02;;;;;;;5.47;3.42;;;;;;;20.34;58.12;101418.06;4993658;28;20069;-77
2022/05/07 01:06:34;;;;;;;4.05;3.65;;;;;;;20.34;58.29;101412.69;4994584;28;20054;-77
2022/05/07 01:09:06;;;;;;;4.93;3.20;;;;;;;20.34;58.27;101410.84;4994628;28;20050;-77
2022/05/07 01:11:35;;;;;;;4.25;3.25;;;;;;;20.34;58.15;101408.16;4994327;28;20061;-77
2022/05/07 01:14:03;;;;;;;3.97;3.30;;;;;;;20.34;58.18;101404.63;4994225;28;20054;-77
2022/05/07 01:16:33;;;;;;;3.65;3.28;;;;;;;20.34;58.28;101399.25;4994508;28;20402;-77
2022/05/07 01:19:01;;;;;;;5.60;3.00;;;;;;;20.33;58.15;101395.66;4990983;28;20042;-77
2022/05/07 01:21:28;;;;;;;3.92;2.80;;;;;;;20.33;58.04;101398.34;4995095;28;20050;-77
2022/05/07 01:23:59;;;;;;;4.80;3.65;;;;;;;20.34;58.29;101393.84;4993474;28;20050;-77
2022/05/07 01:26:31;;;;;;;4.10;3.33;;;;;;;20.34;58.33;101391.16;4994037;28;20061;-77
2022/05/07 01:29:01;;;;;;;3.25;2.85;;;;;;;20.33;58.35;101386.75;4993730;28;20517;-77
2022/05/07 01:31:30;;;;;;;4.03;3.45;;;;;;;20.34;58.26;101383.97;4994121;28;20525;-77
2022/05/07 01:33:58;;;;;;;4.22;2.97;;;;;;;20.33;58.26;101381.38;4993672;28;20066;-77
2022/05/07 01:36:28;;;;;;;3.83;2.90;;;;;;;20.33;58.13;101384.06;4994202;28;20046;-77
2022/05/07 01:39:01;;;;;;;4.32;3.20;;;;;;;20.33;58.12;101382.22;4994401;28;20046;-77
2022/05/07 01:41:28;;;;;;;4.88;3.10;;;;;;;20.33;58.21;101390.28;4994266;28;20053;-77
2022/05/07 01:43:56;;;;;;;4.40;3.38;;;;;;;20.33;58.14;101384.06;4994423;28;20051;-77
2022/05/07 01:49:14;;;;;;;3.30;2.70;;;;;;;20.33;58.15;101384.91;5010065;28;20065;-77
2022/05/07 01:51:42;;;;;;;3.65;2.90;;;;;;;20.32;58.27;101377.84;5010335;28;20050;-77
2022/05/07 01:54:09;;;;;;;4.10;2.83;;;;;;;20.32;58.29;101372.44;4994664;28;20055;-78
2022/05/07 01:56:38;;;;;;;3.60;3.05;;;;;;;20.33;58.26;101373.31;5009416;28;20046;-78
2022/05/07 01:59:06;;;;;;;3.83;2.80;;;;;;;20.32;58.16;101377.84;4977198;28;20402;-78
2022/05/07 02:01:33;;;;;;;3.75;2.92;;;;;;;20.34;58.20;101383.09;4993857;28;20061;-78
2022/05/07 02:04:01;;;;;;;3.17;2.80;;;;;;;20.33;58.35;101378.69;4994383;28;20050;-78
2022/05/07 02:06:30;;;;;;;5.00;2.97;;;;;;;20.32;58.35;101379.66;4993214;28;20065;-77
2022/05/07 02:08:57;;;;;;;4.25;3.00;;;;;;;20.32;58.30;101375.16;4993421;28;20090;-77
2022/05/07 02:11:29;;;;;;;3.90;3.00;;;;;;;20.32;58.33;101388.59;4993424;28;20069;-77
2022/05/07 02:13:57;;;;;;;4.22;2.80;;;;;;;20.33;58.29;101381.38;5009436;28;20057;-77
2022/05/07 02:16:25;;;;;;;3.65;2.97;;;;;;;20.32;58.30;101385.03;4993227;28;20077;-77
2022/05/07 02:18:53;;;;;;;5.40;2.88;;;;;;;20.32;58.40;101387.75;5009272;28;20054;-77
2022/05/07 02:21:20;;;;;;;3.33;3.00;;;;;;;20.32;58.26;101383.22;4992380;28;20097;-78
2022/05/07 02:23:47;;;;;;;3.92;2.85;;;;;;;20.32;58.43;101388.59;4992907;28;20058;-78
2022/05/07 02:26:15;;;;;;;3.28;2.70;;;;;;;20.32;58.47;101383.22;5006324;28;20054;-78
2022/05/07 02:28:44;;;;;;;4.53;2.85;;;;;;;20.31;58.42;101375.28;4974214;28;20062;-77
2022/05/07 02:31:11;;;;;;;3.35;2.90;;;;;;;20.32;58.39;101379.66;4993225;28;20489;-78
2022/05/07 02:33:39;;;;;;;4.10;2.63;;;;;;;20.31;58.51;101370.75;4992996;28;20054;-78
2022/05/07 02:36:12;;;;;;;3.63;3.13;;;;;;;20.32;58.47;101376.97;4993001;28;20054;-77
2022/05/07 02:38:40;;;;;;;3.85;2.70;;;;;;;20.32;58.23;101371.59;4992895;28;20046;-77
2022/05/07 02:43:57;;;;;;;3.92;2.67;;;;;;;20.32;58.44;101368.91;5008959;28;20061;-77
2022/05/07 02:46:25;;;;;;;3.95;2.75;;;;;;;20.32;58.54;101366.22;4992388;28;20061;-77
2022/05/07 02:48:53;;;;;;;3.97;2.90;;;;;;;20.32;58.61;101369.75;5009419;28;20054;-77
2022/05/07 02:51:21;;;;;;;3.58;2.80;;;;;;;20.31;58.51;101364.53;4993937;28;20057;-77
2022/05/07 02:53:48;;;;;;;3.08;2.38;;;;;;;20.31;58.52;101359.16;4993009;28;20054;-78
2022/05/07 02:56:16;;;;;;;3.15;2.67;;;;;;;20.31;58.47;101364.53;4992330;28;20050;-78
2022/05/07 02:58:45;;;;;;;3.30;2.25;;;;;;;20.31;58.69;101359.16;5009022;28;20053;-78
2022/05/07 03:01:13;;;;;;;2.95;2.47;;;;;;;20.31;58.49;101360.00;4992465;28;20422;-77
2022/05/07 03:03:40;;;;;;;3.50;2.70;;;;;;;20.31;58.50;101356.47;4992888;28;20050;-77
2022/05/07 03:06:08;;;;;;;4.60;2.70;;;;;;;20.31;58.68;101359.16;4975910;28;20058;-77
2022/05/07 03:08:36;;;;;;;3.13;2.75;;;;;;;20.31;58.53;101349.25;4974105;28;20043;-77
2022/05/07 03:11:03;;;;;;;4.97;3.17;;;;;;;20.31;58.62;101351.94;4973290;28;20059;-77
2022/05/07 03:13:31;;;;;;;3.95;2.53;;;;;;;20.31;58.58;101353.78;4973447;28;20392;-78
2022/05/07 03:15:59;;;;;;;3.72;2.40;;;;;;;20.31;58.59;101353.78;4974545;28;20053;-78
2022/05/07 03:18:26;;;;;;;3.35;2.50;;;;;;;20.31;58.75;101360.00;4973639;28;20499;-78
2022/05/07 03:20:56;;;;;;;3.15;2.70;;;;;;;20.30;58.74;101358.28;4988561;28;20145;-78
2022/05/07 03:23:23;;;;;;;4.05;2.63;;;;;;;20.31;58.64;101354.63;4993580;28;20054;-77
2022/05/07 03:26:01;;;;;;;4.05;2.60;;;;;;;20.30;58.63;101350.22;4994228;28;20062;-78
2022/05/07 03:28:28;;;;;;;3.45;2.85;;;;;;;20.30;58.79;101350.22;4994625;28;20046;-78
2022/05/07 03:30:56;;;;;;;3.63;2.75;;;;;;;20.31;58.75;101359.16;4993338;28;20059;-77
2022/05/07 03:33:25;;;;;;;3.20;2.78;;;;;;;20.30;58.66;101360.97;4992693;28;20050;-77
2022/05/07 03:35:52;;;;;;;5.38;2.78;;;;;;;20.31;58.78;101356.47;4992892;28;20062;-77
2022/05/07 03:38:20;;;;;;;4.50;2.50;;;;;;;20.30;58.61;101362.81;4992143;28;20050;-77
2022/05/07 03:40:54;;;;;;;4.20;2.63;;;;;;;20.30;58.71;101358.28;4992175;28;20074;-77
2022/05/07 03:43:26;;;;;;;3.45;2.58;;;;;;;20.31;58.78;101361.84;4977345;28;20054;-78
2022/05/07 03:45:53;;;;;;;3.03;2.47;;;;;;;20.30;58.83;101352.91;4992857;28;20050;-77
2022/05/07 03:48:21;;;;;;;3.45;2.60;;;;;;;20.31;58.71;101356.47;4996203;28;20046;-78
2022/05/07 03:50:53;;;;;;;2.80;2.40;;;;;;;20.30;58.68;101357.44;4996452;28;20073;-78
2022/05/07 03:53:29;;;;;;;2.78;2.47;;;;;;;20.30;58.94;101352.06;4996275;28;20058;-78
2022/05/07 03:56:06;;;;;;;6.50;3.15;;;;;;;20.31;58.89;101359.16;4996959;28;20054;-77
2022/05/07 03:58:36;;;;;;;6.15;2.70;;;;;;;20.30;58.97;101357.44;4995586;28;20057;-77
2022/05/07 04:01:15;;;;;;;3.58;2.80;;;;;;;20.29;58.93;101356.56;4996087;28;20499;-77
2022/05/07 04:03:42;;;;;;;3.70;2.33;;;;;;;20.31;58.86;101356.47;4996893;28;20509;-78
2022/05/07 04:06:10;;;;;;;3.58;2.80;;;;;;;20.30;58.89;101360.13;4995607;28;20050;-77
2022/05/07 04:08:38;;;;;;;3.90;2.80;;;;;;;20.29;58.91;101363.78;4995964;28;20379;-77
2022/05/07 04:11:07;;;;;;;3.72;2.25;;;;;;;20.29;59.13;101366.47;4995584;28;20061;-77
2022/05/07 04:13:35;;;;;;;3.25;2.55;;;;;;;20.30;59.03;101360.13;4995609;28;20054;-77
2022/05/07 04:16:04;;;;;;;3.88;2.70;;;;;;;20.30;58.97;101368.19;4979541;28;20058;-77
2022/05/07 04:18:37;;;;;;;3.95;2.92;;;;;;;20.29;59.10;101372.69;4995584;28;20047;-78
2022/05/07 04:21:09;;;;;;;;;;;;;;;20.30;58.92;101374.44;4995477;28;20046;-77
2022/05/07 04:23:37;;;;;;;4.07;2.83;;;;;;;20.30;59.01;101373.56;4997545;28;20361;-78
2022/05/07 04:26:04;;;;;;;4.70;3.33;;;;;;;20.30;59.12;101368.19;4994923;28;20058;-77
2022/05/07 04:28:39;;;;;;;3.17;2.40;;;;;;;20.29;59.15;101366.47;4978561;28;20146;-77
2022/05/07 04:31:08;;;;;;;3.28;2.60;;;;;;;20.29;59.07;101372.69;5011478;28;20054;-78
2022/05/07 04:33:35;;;;;;;3.78;2.67;;;;;;;20.30;59.13;101373.56;4995168;28;20619;-78
2022/05/07 04:36:08;;;;;;;3.20;2.72;;;;;;;20.30;58.88;101376.25;4996067;28;20050;-78
2022/05/07 04:38:39;;;;;;;3.83;2.67;;;;;;;20.29;59.13;101369.16;4995598;28;20043;-77
2022/05/07 04:41:09;;;;;;;4.43;3.15;;;;;;;20.30;59.02;101374.44;4995164;28;20058;-78
2022/05/07 04:43:36;;;;;;;4.05;2.60;;;;;;;20.28;59.25;101376.38;4995253;28;20062;-77
2022/05/07 04:46:03;;;;;;;3.53;2.65;;;;;;;20.30;59.15;101379.81;4995143;28;20052;-77
2022/05/07 04:48:33;;;;;;;3.35;2.58;;;;;;;20.30;59.18;101376.25;5010944;28;20065;-77
2022/05/07 04:51:04;;;;;;;4.05;2.90;;;;;;;20.28;59.14;101379.06;4996221;28;20050;-78
2022/05/07 04:54:08;;;;;;;3.30;2.72;;;;;;;20.29;59.17;101385.28;5010891;28;20054;-78
2022/05/07 04:56:36;;;;;;;3.58;2.72;;;;;;;20.29;59.14;101387.97;4994616;28;20058;-78
2022/05/07 04:59:05;;;;;;;3.08;2.58;;;;;;;20.29;59.17;101387.97;4994667;28;20073;-77
2022/05/07 05:01:40;;;;;;;3.47;2.97;;;;;;;20.29;59.25;101388.81;5010971;28;20058;-77
2022/05/07 05:04:12;;;;;;;2.97;2.50;;;;;;;20.28;59.22;101388.97;4994295;28;20062;-77
2022/05/07 05:06:40;;;;;;;3.83;3.08;;;;;;;20.29;59.18;101380.75;4959998;28;20063;-77
2022/05/07 05:09:14;;;;;;;3.35;2.85;;;;;;;20.29;59.09;101393.34;4975426;28;20053;-77
2022/05/07 05:11:51;;;;;;;3.67;2.95;;;;;;;20.28;59.24;101392.50;4975492;28;20403;-78
2022/05/07 05:17:06;;;;;;;3.83;2.67;;;;;;;20.28;59.23;101392.50;4974820;28;20051;-77
2022/05/07 05:19:39;;;;;;;4.33;2.60;;;;;;;20.28;59.14;101394.34;4974686;28;20050;-78
2022/05/07 05:22:09;;;;;;;3.67;3.10;;;;;;;20.29;59.15;101396.03;4978451;28;20118;-78
2022/05/07 05:24:36;;;;;;;4.60;3.05;;;;;;;20.29;59.28;101390.66;4993835;28;20054;-78
2022/05/07 05:27:04;;;;;;;3.13;2.55;;;;;;;20.29;59.14;101398.72;4994132;28;20522;-77
2022/05/07 05:29:38;;;;;;;3.53;3.10;;;;;;;20.27;59.39;101401.56;4993928;28;20406;-77
2022/05/07 05:32:09;;;;;;;3.55;3.25;;;;;;;20.28;59.11;101391.66;4994543;28;20422;-77
2022/05/07 05:34:38;;;;;;;3.92;2.85;;;;;;;20.28;59.37;101399.72;4993899;28;20410;-78
2022/05/07 05:37:06;;;;;;;4.78;2.65;;;;;;;20.28;59.16;101405.94;4994375;28;20109;-78
2022/05/07 05:39:41;;;;;;;3.00;2.58;;;;;;;20.28;59.13;101405.09;4993652;28;20149;-78
2022/05/07 05:42:10;;;;;;;3.85;3.05;;;;;;;20.28;59.30;101407.78;4977933;28;20490;-78
2022/05/07 05:44:42;;;;;;;4.32;2.78;;;;;;;20.29;59.41;101406.78;4994301;28;20061;-79
2022/05/07 05:47:15;;;;;;;3.65;2.70;;;;;;;20.28;59.26;101410.47;4993364;28;20065;-78
2022/05/07 05:49:42;;;;;;;5.45;2.65;;;;;;;20.28;59.27;101408.63;4993253;28;20050;-77
2022/05/07 05:52:09;;;;;;;3.83;2.90;;;;;;;20.28;59.11;101413.16;4993720;28;20062;-77
2022/05/07 05:54:37;;;;;;;4.53;3.22;;;;;;;20.28;59.29;101410.47;4993803;28;20057;-77
2022/05/07 05:57:07;;;;;;;3.22;2.53;;;;;;;20.27;59.20;101419.53;4993850;28;20058;-77
2022/05/07 05:59:37;;;;;;;4.35;2.80;;;;;;;20.27;59.22;101422.22;4993445;28;20474;-77
2022/05/07 06:02:04;;;;;;;3.67;3.28;;;;;;;20.27;59.35;101414.16;4993506;28;20054;-76
2022/05/07 06:04:38;;;;;;;3.65;3.17;;;;;;;20.27;59.20;101411.47;4992869;28;20050;-77
2022/05/07 06:07:15;;;;;;;3.28;2.70;;;;;;;20.27;59.25;101415.00;4994930;28;20058;-77
2022/05/07 06:09:44;;;;;;;3.55;3.13;;;;;;;20.28;59.21;101418.53;4993374;28;20058;-77
2022/05/07 06:12:17;;;;;;;3.25;2.95;;;;;;;20.27;59.25;101408.78;4994824;28;20046;-77
2022/05/07 06:14:46;;;;;;;3.65;3.15;;;;;;;20.28;59.45;101410.47;4993437;28;20058;-78
2022/05/07 06:17:15;;;;;;;3.28;2.40;;;;;;;20.28;59.41;101405.94;4993352;28;20563;-77
2022/05/07 06:19:46;;;;;;;4.43;3.47;;;;;;;20.26;59.30;101405.22;4993097;28;20050;-78
2022/05/07 06:22:15;;;;;;;3.92;2.80;;;;;;;20.27;59.44;101411.47;4992929;28;20069;-78
2022/05/07 06:27:42;;;;;;;3.45;3.15;;;;;;;20.26;59.29;101416.00;4989358;28;20047;-78
2022/05/07 06:30:20;;;;;;;5.18;3.63;;;;;;;20.27;59.24;101414.16;4987436;28;20057;-78
2022/05/07 06:32:51;;;;;;;4.10;3.40;;;;;;;20.26;59.46;101410.63;4992460;28;20050;-78
2022/05/07 06:35:21;;;;;;;4.60;3.08;;;;;;;20.26;59.53;101413.31;4992205;28;20061;-78
2022/05/07 06:38:00;;;;;;;4.75;3.42;;;;;;;20.27;59.33;101416.84;4992426;28;20050;-77
2022/05/07 06:40:28;;;;;;;3.80;3.40;;;;;;;20.27;59.34;101419.53;4992629;28;20046;-77
2022/05/07 06:42:56;;;;;;;7.03;3.65;;;;;;;20.26;59.22;101416.00;4992432;28;20059;-77
2022/05/07 06:45:33;;;;;;;5.60;3.78;;;;;;;20.27;59.17;101423.06;4992928;28;20490;-78
2022/05/07 06:48:08;;;;;;;5.70;4.88;;;;;;;20.27;59.40;101416.84;4993060;28;20050;-78
2022/05/07 06:50:36;;;;;;;6.88;6.18;;;;;;;20.27;59.48;101416.84;4992746;28;20050;-80
2022/05/07 06:53:03;;;;;;;6.15;4.25;;;;;;;20.27;59.49;101416.84;4993035;28;20517;-77
2022/05/07 06:55:32;;;;;;;6.47;4.10;;;;;;;20.27;59.35;101411.47;4994229;28;20050;-77
2022/05/07 06:58:00;;;;;;;9.98;8.77;;;;;;;20.25;59.29;101411.56;4993595;28;20430;-76
2022/05/07 07:00:47;;;;;;;14.13;11.38;;;;;;;20.18;59.38;101413.91;4993638;28;20046;-80
2022/05/07 07:03:15;;;;;;;13.43;12.02;;;;;;;20.12;59.48;101409.00;4993859;28;20057;-76
2022/05/07 07:05:50;;;;;;;15.65;13.45;;;;;;;20.03;59.88;101415.13;4993610;28;20374;-77
2022/05/07 07:08:17;;;;;;;14.70;12.77;;;;;;;19.95;60.19;101417.56;4994410;28;20050;-77
2022/05/07 07:10:45;;;;;;;18.60;14.38;;;;;;;19.90;60.32;101422.47;4977955;28;20046;-79
2022/05/07 07:13:13;;;;;;;15.60;13.35;;;;;;;19.88;60.18;101427.94;4992549;28;20054;-79
2022/05/07 07:15:40;;;;;;;16.33;13.52;;;;;;;19.89;60.41;101420.72;4994371;28;20050;-77
2022/05/07 07:18:11;;;;;;;19.17;15.77;;;;;;;19.89;60.32;101431.47;4993891;28;20042;-76
2022/05/07 07:20:41;;;;;;;21.48;16.77;;;;;;;19.88;59.96;101430.63;4995054;28;20045;-80
2022/05/07 07:23:11;;;;;;;20.77;16.30;;;;;;;19.87;60.05;101434.31;4997757;28;20058;-81
2022/05/07 07:25:40;;;;;;;20.83;15.00;;;;;;;19.86;60.07;101426.38;4997314;28;20506;-78
2022/05/07 07:28:09;;;;;;;18.73;15.65;;;;;;;19.85;60.28;101421.94;4997843;28;20046;-80
2022/05/07 07:30:37;;;;;;;20.42;16.63;;;;;;;19.82;60.10;101428.44;4997362;28;20046;-80
2022/05/07 07:33:05;;;;;;;16.73;14.98;;;;;;;19.81;60.33;101425.84;4997691;28;20053;-79
2022/05/07 07:35:32;;;;;;;14.98;12.75;;;;;;;19.82;60.28;101432.97;4996614;28;20046;-79
2022/05/07 07:38:00;;;;;;;14.20;12.65;;;;;;;19.85;60.09;101428.22;4998189;28;20482;-82
2022/05/07 07:40:29;;;;;;;16.48;11.55;;;;;;;19.87;60.12;101431.63;4996995;28;20050;-77
2022/05/07 07:42:56;;;;;;;12.75;10.48;;;;;;;19.91;59.83;101433.09;4996343;28;20053;-78
2022/05/07 07:48:10;;;;;;;18.33;10.43;;;;;;;19.96;59.80;101436.25;4997274;28;20046;-80
2022/05/07 07:50:38;;;;;;;17.08;10.82;;;;;;;19.98;59.75;101434.31;4996624;28;20046;-79
2022/05/07 07:53:10;;;;;;;13.55;9.98;;;;;;;20.01;59.72;101438.56;4998286;28;20065;-81
2022/05/07 07:55:39;;;;;;;11.03;9.17;;;;;;;20.02;59.77;101440.31;4997645;28;20046;-76
2022/05/07 07:58:08;;;;;;;13.90;8.98;;;;;;;20.05;59.81;101447.25;4997107;28;20110;-79
2022/05/07 08:00:37;;;;;;;18.15;10.07;;;;;;;20.06;60.22;101440.94;4995409;28;20050;-84
2022/05/07 08:03:12;;;;;;;16.13;9.23;;;;;;;20.06;59.70;101449.84;4997257;28;20050;-78
2022/05/07 08:05:40;;;;;;;12.55;8.43;;;;;;;20.08;60.15;101452.38;5012467;28;20430;-81
2022/05/07 08:13:45;;;;;;;15.10;7.05;;;;;;;20.10;59.98;101454.00;4996642;28;20042;-79
2022/05/07 08:16:13;;;;;;;10.10;7.88;;;;;;;20.12;59.84;101451.16;4996257;28;20050;-79
2022/05/07 08:18:41;;;;;;;11.70;7.20;;;;;;;20.11;59.80;101449.47;4996204;28;20423;-78
2022/05/07 08:21:10;;;;;;;9.70;6.75;;;;;;;20.12;59.68;101449.34;4997392;28;20045;-78
2022/05/07 08:23:39;;;;;;;11.68;6.85;;;;;;;20.12;59.69;101460.09;4997209;28;20049;-78
2022/05/07 08:26:07;;;;;;;10.20;7.07;;;;;;;20.11;59.62;101447.63;4996372;28;20528;-78
2022/05/07 08:28:37;;;;;;;9.95;6.80;;;;;;;20.12;59.62;101452.03;4998059;28;20490;-78
2022/05/07 08:31:05;;;;;;;6.93;6.07;;;;;;;20.12;59.71;101452.03;4977596;28;20043;-78
2022/05/07 08:33:33;;;;;;;9.60;7.35;;;;;;;20.12;59.51;101451.16;4979485;28;20050;-78
2022/05/07 08:36:01;;;;;;;9.73;6.63;;;;;;;20.13;59.56;101452.88;4979638;28;20077;-78
2022/05/07 08:38:28;;;;;;;8.10;6.28;;;;;;;20.12;59.53;101456.53;4978344;28;20502;-78
2022/05/07 08:40:57;;;;;;;9.45;6.38;;;;;;;20.12;59.47;101456.53;4977867;28;20051;-78
2022/05/07 08:43:25;;;;;;;7.50;5.72;;;;;;;20.13;59.36;101459.09;4978010;28;20043;-78
2022/05/07 08:45:52;;;;;;;9.23;5.90;;;;;;;20.13;59.47;101456.41;4976812;28;20513;-78
2022/05/07 08:48:20;;;;;;;8.48;6.32;;;;;;;20.12;59.25;101452.03;4976877;28;20054;-78
2022/05/07 08:50:54;;;;;;;6.57;5.78;;;;;;;20.13;59.37;101459.09;4977529;28;20418;-79
2022/05/07 08:53:22;;;;;;;8.70;5.68;;;;;;;20.12;59.30;101460.09;4977363;28;20046;-78
2022/05/07 08:55:54;;;;;;;6.30;5.28;;;;;;;20.13;59.14;101453.72;4977292;28;20046;-78
2022/05/07 08:58:22;;;;;;;7.45;5.35;;;;;;;20.13;59.21;101463.63;4977374;28;20043;-78
2022/05/07 09:00:50;;;;;;;7.60;5.63;;;;;;;20.14;59.21;101462.69;4977149;28;20038;-79
2022/05/07 09:03:18;;;;;;;8.55;5.72;;;;;;;20.14;59.17;101465.38;4976156;28;20051;-78
2022/05/07 09:05:46;;;;;;;8.63;5.53;;;;;;;20.13;59.07;101456.41;4979296;28;20506;-79
2022/05/07 09:08:13;;;;;;;12.70;5.60;;;;;;;20.14;59.19;101460.84;4996577;28;20054;-78
2022/05/07 09:10:41;;;;;;;8.65;5.28;;;;;;;20.14;58.94;101454.59;4997102;28;20053;-78
2022/05/07 09:13:09;;;;;;;8.68;5.82;;;;;;;20.13;59.00;101447.50;4996100;28;20050;-78
2022/05/07 09:15:47;;;;;;;7.72;5.82;;;;;;;20.13;58.92;101445.66;4996765;28;20057;-79
2022/05/07 09:18:16;;;;;;;6.57;5.75;;;;;;;20.14;59.06;101436.66;4995963;28;20379;-78
2022/05/07 09:20:43;;;;;;;6.65;5.68;;;;;;;20.14;58.94;101439.34;4994511;28;20042;-79
2022/05/07 09:23:11;;;;;;;6.90;5.28;;;;;;;20.13;59.02;101437.59;4994995;28;20065;-79
2022/05/07 09:25:46;;;;;;;7.30;4.85;;;;;;;20.14;58.84;101431.25;4995294;28;20050;-78
2022/05/07 09:28:13;;;;;;;7.53;5.13;;;;;;;20.15;58.93;101435.66;4993817;28;20517;-79
2022/05/07 09:30:44;;;;;;;6.07;5.50;;;;;;;20.15;58.70;101441.03;4995875;28;20046;-78
2022/05/07 09:33:11;;;;;;;7.05;5.53;;;;;;;20.15;58.76;101437.50;4995757;28;20062;-78
2022/05/07 09:35:47;;;;;;;6.10;4.75;;;;;;;20.15;58.68;101432.97;4994833;28;20398;-78
2022/05/07 09:38:15;;;;;;;7.00;4.60;;;;;;;20.14;58.79;101439.34;4996559;28;20061;-78
2022/05/07 09:40:44;;;;;;;5.80;4.40;;;;;;;20.15;58.68;101441.03;4996267;28;20497;-78
2022/05/07 09:43:12;;;;;;;6.82;5.00;;;;;;;20.14;58.94;101428.56;4994459;28;20476;-78
2022/05/07 09:45:41;;;;;;;6.53;5.00;;;;;;;20.15;58.83;101435.66;4995495;28;20065;-78
2022/05/07 09:48:08;;;;;;;7.85;4.95;;;;;;;20.16;58.49;101437.34;4994865;28;20414;-78
2022/05/07 09:58:40;;;;;;;5.72;4.90;;;;;;;20.16;58.57;101437.34;4995502;28;20042;-78
2022/05/07 10:01:20;;;;;;;6.45;5.05;;;;;;;20.16;58.64;101429.28;4995508;28;20046;-78
2022/05/07 10:03:53;;;;;;;5.60;4.80;;;;;;;20.15;58.36;101426.75;4993736;28;20066;-78
2022/05/07 10:06:36;;;;;;;4.95;4.45;;;;;;;20.15;58.59;101424.91;4995849;28;20053;-78
2022/05/07 10:09:23;;;;;;;6.93;5.18;;;;;;;20.16;58.46;101415.00;4995681;28;20050;-78
2022/05/07 10:11:53;;;;;;;5.18;4.60;;;;;;;20.17;58.50;101424.78;4994909;28;20094;-78
2022/05/07 10:14:30;;;;;;;6.82;4.65;;;;;;;20.16;58.60;101413.16;4995657;28;20061;-78
2022/05/07 10:17:21;;;;;;;5.22;4.40;;;;;;;20.17;58.41;101416.69;4996391;28;20050;-78
2022/05/07 10:19:52;;;;;;;5.72;4.88;;;;;;;20.17;58.37;101414.00;4994629;28;20058;-79
2022/05/07 10:22:21;;;;;;;5.97;4.75;;;;;;;20.17;58.48;101414.00;4993064;28;20039;-78
2022/05/07 10:25:01;;;;;;;7.78;4.65;;;;;;;20.17;58.41;101411.31;4993720;28;20414;-78
2022/05/07 10:27:32;;;;;;;5.43;4.47;;;;;;;20.17;58.43;101403.25;4992998;28;20042;-78
2022/05/07 10:30:09;;;;;;;5.25;4.75;;;;;;;20.16;58.33;101405.09;4992815;28;20046;-78
2022/05/07 10:33:02;;;;;;;6.35;5.05;;;;;;;20.16;58.46;101402.41;4993946;28;20046;-78
2022/05/07 10:35:58;;;;;;;8.23;5.00;;;;;;;20.17;58.44;101397.88;4994509;28;20042;-79
2022/05/07 10:38:39;;;;;;;5.32;4.80;;;;;;;20.18;58.40;101399.63;4995065;28;20046;-78
2022/05/07 10:41:19;;;;;;;6.68;4.63;;;;;;;20.17;58.29;101398.75;4994004;28;20043;-78
2022/05/07 10:43:59;;;;;;;4.70;4.15;;;;;;;20.17;58.21;101387.97;4994793;28;20046;-78
2022/05/07 10:46:40;;;;;;;5.53;4.93;;;;;;;20.17;58.34;101385.28;4996837;28;20054;-78
2022/05/07 10:49:08;;;;;;;6.00;4.07;;;;;;;20.18;58.16;101383.50;4995653;28;20050;-78
2022/05/07 10:51:37;;;;;;;5.32;4.30;;;;;;;20.18;58.29;101387.03;4993712;28;20049;-78
2022/05/07 10:54:22;;;;;;;5.28;4.03;;;;;;;20.17;58.25;101379.91;4995510;28;20050;-78
2022/05/07 10:56:54;;;;;;;6.00;4.43;;;;;;;20.18;58.20;101378.97;4994641;28;20055;-78
2022/05/07 10:59:23;;;;;;;6.07;4.28;;;;;;;20.17;58.17;101374.53;4994489;28;20050;-78
2022/05/07 11:01:51;;;;;;;5.40;4.50;;;;;;;20.19;58.25;101374.44;4992853;28;20073;-78
2022/05/07 11:04:21;;;;;;;4.95;4.10;;;;;;;20.19;58.03;101361.84;4994995;28;20046;-78
2022/05/07 11:06:51;;;;;;;7.20;4.75;;;;;;;20.20;58.17;101363.53;4986565;28;20430;-78
2022/05/07 11:09:23;;;;;;;6.05;4.38;;;;;;;20.20;58.14;101357.31;4975003;28;20050;-78
2022/05/07 11:11:54;;;;;;;7.47;4.43;;;;;;;20.21;58.10;101353.66;4975398;28;20046;-78
2022/05/07 11:14:26;;;;;;;7.40;4.30;;;;;;;20.21;58.14;101359.03;4975865;28;20061;-78
2022/05/07 11:16:56;;;;;;;6.15;4.30;;;;;;;20.21;58.08;101354.50;4974199;28;20055;-78
2022/05/07 11:19:30;;;;;;;5.68;4.53;;;;;;;20.22;58.09;101355.38;4974854;28;20047;-78
2022/05/07 11:22:00;;;;;;;5.93;3.83;;;;;;;20.21;58.21;101354.50;4973983;28;20035;-78
2022/05/07 11:24:32;;;;;;;5.63;4.60;;;;;;;20.22;58.19;101355.38;4973363;28;20065;-78
2022/05/07 11:27:02;;;;;;;5.40;4.85;;;;;;;20.20;58.05;101347.41;4974016;28;20050;-78
2022/05/07 11:29:30;;;;;;;4.65;4.13;;;;;;;20.21;58.01;101340.19;4991767;28;20053;-78
2022/05/07 11:31:59;;;;;;;4.40;3.92;;;;;;;20.22;57.99;101350.00;4994702;28;20038;-78
2022/05/07 11:34:37;;;;;;;4.93;3.75;;;;;;;20.22;58.08;101350.00;4994616;28;20042;-78
2022/05/07 11:37:16;;;;;;;6.07;4.60;;;;;;;20.22;58.15;101340.09;4994888;28;20046;-78
2022/05/07 11:39:56;;;;;;;4.22;3.83;;;;;;;20.22;58.08;101350.00;4993972;28;20054;-78
2022/05/07 11:42:39;;;;;;;4.75;4.18;;;;;;;20.22;58.11;101347.31;4994435;28;20069;-78
2022/05/07 11:45:25;;;;;;;5.05;4.00;;;;;;;20.21;57.89;101341.06;4993866;28;20062;-78
2022/05/07 11:47:54;;;;;;;5.13;4.00;;;;;;;20.20;58.19;101333.13;4994156;28;20410;-79
2022/05/07 11:50:25;;;;;;;5.03;4.47;;;;;;;20.21;58.03;101334.81;4992250;28;20042;-78
2022/05/07 11:52:56;;;;;;;4.75;4.13;;;;;;;20.21;57.87;101341.06;4992492;28;20051;-78
2022/05/07 11:55:29;;;;;;;4.78;4.22;;;;;;;20.22;58.08;101333.88;4993456;28;20042;-78
2022/05/07 11:57:57;;;;;;;5.28;4.18;;;;;;;20.20;58.05;101342.03;4992884;28;20059;-78
2022/05/07 12:00:27;;;;;;;5.88;4.15;;;;;;;20.21;58.06;101324.91;4993658;28;20046;-78
2022/05/07 12:03:02;;;;;;;4.72;3.83;;;;;;;20.21;57.86;101322.22;4993853;28;20046;-78
2022/05/07 12:05:41;;;;;;;4.70;3.95;;;;;;;20.22;57.99;101321.28;4994148;28;20054;-79
2022/05/07 12:08:20;;;;;;;6.95;4.50;;;;;;;20.22;57.84;101317.75;4994562;28;20058;-78
2022/05/07 12:10:50;;;;;;;4.13;3.72;;;;;;;20.22;57.93;101318.59;4997876;28;20481;-78